x

8447387 - Borden Flats Light At Fall River, Ma (bltm3) Weather Station

7:54am - Mon 27th Apr 2015 All times are EDT. -4 hours from GMT.

  • Wind
    8mph, 14mph gusts
  • Air Temp 50°f
  • Sea Pressure 1002mb
  • 8447387 - Borden Flats Light At Fall River, Ma
  • 8447387 - Borden Flats Light At Fall River, Ma

More Historic Weather Station data

Upgrade to MSW Pro to gain access to the past 30 days of data for over 8000 Wavebouys and Weather Stations around the globe.

Join Pro

Comparision Forecast

View Surf forecast
   
Mon 04/27 7:54am 8 14 mph 1002mb 50f
7:48am 11 15 mph 1002mb 50f
7:42am 13 16 mph 1002mb 50f
7:36am 10 13 mph 1002.1mb 50f
7:30am 13 15 mph 1002.1mb 50f
7:24am 10 13 mph 1002.1mb 50f
7:18am 11 16 mph 1002.1mb 51f
7:12am 10 15 mph 1002.1mb 51f
7:06am 10 14 mph 1002mb 51f
7:00am 7 11 mph 1002mb 51f
6:54am 8 11 mph 1002mb 50f
6:48am 8 11 mph 1002mb 50f
6:42am 6 8 mph 1002.1mb 49f
6:36am 6 8 mph 1002mb 49f
6:30am 6 7 mph 1002mb 49f
6:24am 6 7 mph 1002mb 49f
6:18am 7 9 mph 1001.9mb 49f
6:12am 7 9 mph 1001.9mb 49f
6:06am 7 10 mph 1001.9mb 49f
6:00am 7 9 mph 1001.8mb 49f
5:54am 8 9 mph 1001.8mb 49f
5:48am 8 9 mph 1001.7mb 49f
5:42am 7 10 mph 1001.6mb 49f
5:36am 8 10 mph 1001.6mb 49f
5:30am  -  mph 1001.6mb 49f
5:24am  -  mph 1001.6mb 49f
5:18am 6 7 mph 1001.5mb 49f
5:12am 6 8 mph 1001.5mb 49f
5:06am 5 7 mph 1001.6mb 49f
5:00am 5 6 mph 1001.6mb 49f
4:54am 5 7 mph 1001.6mb 49f
4:48am 6 7 mph 1001.7mb 49f
4:42am 5 7 mph 1001.7mb 49f
4:36am 6 7 mph 1001.7mb 49f
4:30am 6 7 mph 1001.7mb 49f
4:24am 6 8 mph 1001.8mb 49f
4:18am 6 7 mph 1001.9mb 49f
4:12am 6 7 mph 1001.9mb 49f
4:06am 6 7 mph 1001.9mb 49f
4:00am 5 7 mph 1002mb 49f
3:54am 5 7 mph 1002mb 49f
3:48am 5 7 mph 1002mb 49f
3:42am 6 7 mph 1002mb 49f
3:36am 6 9 mph 1002mb 49f
3:30am 6 7 mph 1002.1mb 49f
3:24am 6 8 mph 1002.1mb 49f
3:18am 6 7 mph 1002.1mb 49f
3:12am 7 8 mph 1002.2mb 49f
3:06am 6 8 mph 1002.2mb 49f
3:00am 6 7 mph 1002.1mb 50f
2:54am 6 8 mph 1002.1mb 50f
2:48am 5 6 mph 1002.1mb 50f
2:42am 6
mph
1002.1mb 50f
2:36am 6 8 mph 1002.1mb 50f
2:30am 7 8 mph 1002.2mb 50f
2:24am 5 6 mph 1002.2mb 50f
2:18am 5 6 mph 1002.2mb 50f
2:12am 6 7 mph 1002.2mb 50f
2:06am 5 6 mph 1002.3mb 50f
2:00am 5
mph
1002.3mb 50f
1:54am 5 6 mph 1002.3mb 50f
1:48am 5
mph
1002.4mb 50f
1:42am 5
mph
1002.4mb 50f
1:36am 5 6 mph 1002.4mb 49f
1:30am 3 5 mph 1002.4mb 49f
1:24am 3
mph
1002.4mb 50f
1:18am 3 5 mph 1002.4mb 50f
1:12am 3 5 mph 1002.4mb 50f
1:06am 3 5 mph 1002.5mb 50f
1:00am 3 5 mph 1002.4mb 50f
12:54am 3 5 mph 1002.4mb 50f
12:48am 5 6 mph 1002.5mb 50f
12:42am 5 7 mph 1002.5mb 50f
12:36am 6 8 mph 1002.5mb 50f
12:30am 7 8 mph 1002.5mb 50f
12:24am 6 8 mph 1002.5mb 50f
12:18am 3 5 mph 1002.5mb 50f
12:12am 5 6 mph 1002.5mb 49f
12:06am 5 6 mph 1002.4mb 49f
12:00am 5 6 mph 1002.4mb 49f
Sun 04/26 11:54pm 5 6 mph 1002.4mb 49f
11:48pm 6 7 mph 1002.4mb 49f
11:42pm 5 6 mph 1002.4mb 49f
11:36pm 6 7 mph 1002.4mb 49f
11:30pm 6 7 mph 1002.4mb 49f
11:24pm 6 7 mph 1002.5mb 49f
11:18pm 6
mph
1002.5mb 49f
11:12pm 5 6 mph 1002.5mb 49f
11:06pm 6
mph
1002.5mb 49f
11:00pm 6
mph
1002.4mb 49f
10:54pm 5
mph
1002.5mb 49f
10:48pm 3 5 mph 1002.5mb 49f
10:42pm 3 5 mph 1002.5mb 49f
10:36pm 5
mph
1002.6mb 49f
10:30pm 3 5 mph 1002.7mb 49f
10:24pm 5 6 mph 1002.7mb 49f
10:18pm 6
mph
1002.7mb 49f
10:12pm 6
mph
1002.7mb 49f
10:06pm 6
mph
1002.7mb 49f
10:00pm 6 7 mph 1002.8mb 49f
9:54pm 6
mph
1002.8mb 50f
9:48pm 6 7 mph 1002.8mb 50f
9:42pm 6
mph
1002.9mb 50f
9:36pm 6
mph
1002.9mb 50f
9:30pm 6 7 mph 1002.9mb 50f
9:24pm 5 6 mph 1003mb 50f
9:18pm 5 6 mph 1003mb 50f
9:12pm 5 6 mph 1003mb 50f
9:06pm 6
mph
1003mb 50f
9:00pm 6 7 mph 1003mb 50f
8:54pm 6
mph
1003mb 50f
8:48pm 6 7 mph 1003mb 50f
8:42pm 6 7 mph 1003mb 50f
8:36pm 6 7 mph 1003mb 50f
8:30pm 5 6 mph 1003mb 51f
8:24pm 6
mph
1003mb 51f
8:18pm 5 6 mph 1003mb 51f
8:12pm 6 7 mph 1003mb 51f
8:06pm 6 7 mph 1003mb 51f
8:00pm 6 7 mph 1003mb 51f
7:54pm 6 7 mph 1003mb 51f
7:48pm 3 5 mph 1003mb 51f
7:42pm 6 7 mph 1003mb 51f
7:36pm 7 8 mph 1002.9mb 52f
7:30pm 7 9 mph 1002.9mb 52f
7:24pm 9
mph
1002.8mb 52f
7:18pm 9 10 mph 1002.8mb 52f
7:12pm 10 11 mph 1002.7mb 52f
7:06pm 10 11 mph 1002.7mb 52f
7:00pm 8 11 mph 1002.7mb 53f
6:54pm 9 11 mph 1002.7mb 53f
6:48pm 13 14 mph 1002.6mb 53f
6:42pm 11 13 mph 1002.5mb 52f
6:36pm 9 13 mph 1002.6mb 53f
6:30pm  -  1 mph 1002.6mb 55f
6:24pm  -  2 mph 1002.6mb 55f
6:18pm 2 3 mph 1002.6mb 55f
6:12pm 1 3 mph 1002.6mb 55f
6:06pm  -  mph 1002.7mb 55f
6:00pm 1 2 mph 1002.7mb 55f
5:54pm 3 6 mph 1002.6mb 55f
5:48pm 6 8 mph 1002.6mb 55f
5:42pm 5 6 mph 1002.6mb 55f
5:36pm 3 6 mph 1002.6mb 56f
5:30pm 2 3 mph 1002.6mb 56f
5:24pm 6 7 mph 1002.6mb 56f
5:18pm 7 10 mph 1002.6mb 56f
5:12pm 7 9 mph 1002.7mb 56f
5:06pm 8 11 mph 1002.6mb 56f
5:00pm 8 10 mph 1002.7mb 56f
4:54pm 8 11 mph 1002.7mb 56f
4:48pm 5 6 mph 1002.7mb 56f
4:42pm 9 11 mph 1002.6mb 56f
4:36pm 10 14 mph 1002.7mb 56f
4:30pm 8 11 mph 1002.7mb 56f
4:24pm 8 10 mph 1002.7mb 56f
4:18pm 8 13 mph 1002.8mb 56f
4:12pm 7 10 mph 1002.8mb 56f
4:06pm 9 17 mph 1002.7mb 56f
4:00pm 8 11 mph 1002.7mb 56f
3:54pm 10 15 mph 1002.6mb 56f
3:48pm 10 15 mph 1002.7mb 56f
3:42pm 7 10 mph 1002.8mb 55f
3:36pm 10 14 mph 1002.7mb 55f
3:30pm 8 13 mph 1002.8mb 55f
3:24pm 6 8 mph 1002.8mb 55f
3:18pm 7 9 mph 1002.8mb 55f
3:12pm 7 10 mph 1002.8mb 55f
3:06pm 10 13 mph 1002.8mb 55f
3:00pm 9 14 mph 1002.9mb 55f
2:54pm 10 13 mph 1002.9mb 55f
2:48pm 13 15 mph 1003mb 55f
2:42pm 10 13 mph 1003mb 55f
2:36pm 8 11 mph 1003mb 55f
2:30pm 13 14 mph 1003.1mb 55f
2:24pm 11 15 mph 1003.1mb 55f
2:18pm 10 13 mph 1003mb 55f
2:12pm 11 15 mph 1003mb 55f
2:06pm 8 10 mph 1003.1mb 55f
2:00pm 10 14 mph 1003mb 55f
1:54pm 9 14 mph 1003mb 55f
1:48pm 5 9 mph 1003mb 55f
1:42pm 8 10 mph 1003mb 55f
1:36pm 9 11 mph 1003mb 55f
1:30pm 10 13 mph 1003mb 55f
1:24pm 6 9 mph 1003mb 55f
1:18pm 13 16 mph 1003mb 55f
1:12pm 8 10 mph 1003mb 55f
1:06pm 13 16 mph 1003mb 55f
1:00pm 10 13 mph 1003mb 54f
12:54pm 5 10 mph 1003.1mb 53f
12:48pm 6 9 mph 1003.1mb 53f
12:42pm 6 8 mph 1003.1mb 53f
12:36pm 5 11 mph 1003.1mb 53f
12:30pm 8 11 mph 1003.2mb 52f
12:24pm 8 10 mph 1003.3mb 52f
12:18pm 9 10 mph 1003.4mb 52f
12:12pm 9 10 mph 1003.4mb 51f
12:06pm 9 10 mph 1003.4mb 51f
12:00pm 9 10 mph 1003.5mb 51f
11:54am 9
mph
1003.5mb 51f
11:48am 10 11 mph 1003.5mb 51f
11:42am 9 11 mph 1003.6mb 51f
11:36am 10 13 mph 1003.6mb 51f
11:30am 10 11 mph 1003.6mb 51f
11:24am 11 13 mph 1003.7mb 51f
11:18am 9 10 mph 1003.7mb 51f
11:12am 9 11 mph 1003.7mb 51f
11:06am 10 11 mph 1003.6mb 51f
11:00am 6 7 mph 1003.7mb 52f
10:54am 1 2 mph 1003.7mb 52f
10:48am 1
mph
1003.8mb 51f
10:42am  -  1 mph 1003.9mb 52f
10:36am 2 5 mph 1003.9mb 51f
10:30am 7 9 mph 1003.9mb 50f
10:24am 8
mph
1004mb 51f
10:18am 3 5 mph 1004mb 51f
10:12am 1 2 mph 1004.1mb 51f
10:06am  -  2 mph 1004.1mb 51f
10:00am 3 5 mph 1004.1mb 52f
9:54am 5 7 mph 1004.1mb 52f
9:48am 5 7 mph 1004.2mb 51f
9:42am 7 8 mph 1004.2mb 51f
9:36am 6 8 mph 1004.3mb 51f
9:30am 3 5 mph 1004.3mb 50f
9:24am 5 7 mph 1004.3mb 49f
9:18am 3 5 mph 1004.3mb 49f
9:12am 5 8 mph 1004.3mb 49f
9:06am  -  2 mph 1004.4mb 48f
9:00am 1 3 mph 1004.4mb 47f
8:54am  -  2 mph 1004.6mb 47f
8:48am 3 5 mph 1004.5mb 47f
8:42am 1 2 mph 1004.6mb 46f
8:36am 2 3 mph 1004.6mb 46f
8:30am 1 2 mph 1004.6mb 46f
8:24am 2 3 mph 1004.6mb 46f
8:18am 2 3 mph 1004.7mb 46f
8:12am 2 3 mph 1004.8mb 46f
8:06am 2 3 mph 1004.8mb 45f
8:00am 2
mph
1004.8mb 45f
7:54am 1 2 mph 1004.8mb 45f
7:48am 2
mph
1004.8mb 44f
7:42am 1 2 mph 1004.9mb 44f
7:36am  -  1 mph 1004.9mb 44f
7:30am 1 2 mph 1004.9mb 44f
7:24am 2
mph
1004.8mb 44f
7:18am 2
mph
1004.8mb 43f
7:12am 1 2 mph 1004.9mb 43f
7:06am  -  mph 1004.8mb 43f
7:00am  -  mph 1004.9mb 44f
6:54am  -  2 mph 1004.9mb 43f
6:48am  -  2 mph 1004.9mb 43f
6:42am 2 3 mph 1004.9mb 43f
6:36am 1 2 mph 1004.8mb 43f
6:30am  -  mph 1004.8mb 43f
6:24am  -  mph 1004.8mb 43f
6:18am  -  mph 1004.9mb 43f
6:12am  -  1 mph 1004.7mb 43f
6:06am 1 2 mph 1004.7mb 43f
6:00am 3 5 mph 1004.8mb 42f
5:54am 5 6 mph 1004.7mb 42f
5:48am 3
mph
1004.6mb 43f
5:42am 2 3 mph 1004.5mb 43f
5:36am 2 3 mph 1004.3mb 43f
5:30am 3
mph
1004.2mb 43f
5:24am 2 3 mph 1004.2mb 43f
5:18am 2
mph
1004.2mb 43f
5:12am 2 3 mph 1004.2mb 43f
5:06am 2 3 mph 1004.2mb 43f
5:00am 2 3 mph 1004.2mb 43f
4:54am 2 3 mph 1004.3mb 43f
4:48am 1 2 mph 1004.3mb 43f
4:42am 2
mph
1004.3mb 43f
4:36am 3 5 mph 1004.3mb 43f
4:30am 2 3 mph 1004.3mb 43f
4:24am 3
mph
1004.4mb 43f
4:18am 2 3 mph 1004.5mb 43f
4:12am 2
mph
1004.4mb 43f
4:06am 2
mph
1004.4mb 43f
4:00am 2 3 mph 1004.4mb 43f
3:54am 2
mph
1004.4mb 43f
3:48am 2 3 mph 1004.5mb 43f
3:42am 3
mph
1004.5mb 43f
3:36am 3
mph
1004.5mb 43f
3:30am 2 3 mph 1004.6mb 43f
3:24am 3 5 mph 1004.6mb 43f
3:18am 3 5 mph 1004.7mb 43f
3:12am 3 5 mph 1004.7mb 43f
3:06am 2 3 mph 1004.7mb 43f
3:00am 5 6 mph 1004.7mb 43f
2:54am 6
mph
1004.8mb 43f
2:48am 6 7 mph - 44f
2:42am 6 7 mph - 44f
2:36am 6
mph
- 44f
2:30am 5 6 mph 1005mb 45f
2:24am 3 5 mph 1005mb 45f
2:18am 3 5 mph 1005mb 45f
2:12am 5 6 mph 1005.1mb 45f
2:06am 3 5 mph 1005.1mb 46f
2:00am 5 6 mph 1005.1mb 46f
1:54am 6 8 mph 1005.3mb 46f
1:48am 8 9 mph 1005.4mb 46f
1:42am 8 10 mph 1005.3mb 46f
1:36am 8 11 mph 1005.4mb 47f
1:30am 9 13 mph 1005.4mb 47f
1:24am 9 13 mph 1005.5mb 47f
1:18am 7 9 mph 1005.5mb 47f
1:12am 6 7 mph 1005.5mb 47f
1:06am 6 8 mph 1005.5mb 47f
1:00am 6 8 mph 1005.5mb 47f
12:54am 7 8 mph 1005.5mb 47f
12:48am 6 7 mph 1005.5mb 47f
12:42am 7
mph
1005.6mb 47f
12:36am 7 8 mph 1005.5mb 47f
12:30am 7 9 mph 1005.6mb 47f
12:24am 7 9 mph 1005.6mb 47f
12:18am 6 8 mph 1005.7mb 47f
12:12am 6
mph
1005.7mb 47f
12:06am 5 6 mph 1005.8mb 47f
12:00am 5 6 mph 1005.8mb 48f
Sat 04/25 11:54pm 5 6 mph 1005.8mb 48f
11:48pm 6
mph
1005.8mb 48f
11:42pm 6 7 mph 1005.8mb 48f
11:36pm 6 7 mph 1005.8mb 48f
11:30pm 7 8 mph 1005.8mb 48f
11:24pm 6 7 mph 1005.8mb 48f
11:18pm 7 9 mph 1005.8mb 49f
11:12pm 7 8 mph 1005.8mb 49f
11:06pm 6 7 mph 1005.7mb 49f
11:00pm 8 9 mph 1005.6mb 49f
10:54pm 7 8 mph 1005.7mb 49f
10:48pm 7 8 mph 1005.8mb 49f
10:42pm 7 8 mph 1005.8mb 50f
10:36pm 6 8 mph 1005.7mb 50f
10:30pm 6 9 mph 1005.7mb 50f
10:24pm 7 9 mph 1005.7mb 50f
10:18pm 7 9 mph 1005.7mb 50f
10:12pm 7 8 mph 1005.7mb 50f
10:06pm 8 9 mph 1005.7mb 50f
10:00pm 8 9 mph 1005.7mb 50f
9:54pm 7 8 mph 1005.7mb 50f
9:48pm 8 9 mph 1005.7mb 50f
9:42pm 7 8 mph 1005.8mb 50f
9:36pm 8 10 mph 1005.8mb 50f
9:30pm 7 8 mph 1005.8mb 50f
9:24pm 8 9 mph 1005.8mb 50f
9:18pm 8 9 mph 1005.7mb 51f
9:12pm 7 8 mph 1005.8mb 51f
9:06pm 6 8 mph 1005.7mb 51f
9:00pm 7 8 mph 1005.7mb 51f
8:54pm 6 7 mph 1005.7mb 51f
8:48pm 6 7 mph 1005.6mb 51f
8:42pm 5 6 mph 1005.5mb 51f
8:36pm 6 7 mph 1005.4mb 51f
8:30pm 6 7 mph 1005.3mb 51f
8:24pm 6 7 mph 1005.2mb 51f
8:18pm 6 7 mph 1005.1mb 51f
8:12pm 6 7 mph 1005.1mb 51f
8:06pm 6 7 mph 1005mb 51f
8:00pm 7 8 mph 1004.9mb 51f
7:54pm 7 8 mph 1004.9mb 51f
7:48pm 8 9 mph 1004.9mb 51f
7:42pm 9 11 mph 1004.7mb 51f
7:36pm 9 13 mph 1004.7mb 52f
7:30pm 9 13 mph 1004.7mb 52f
7:24pm 9 13 mph 1004.7mb 51f
7:18pm 8 10 mph 1004.8mb 51f
7:12pm 9 11 mph 1004.7mb 52f
7:06pm 9 13 mph 1004.7mb 53f
7:00pm 9 14 mph 1004.7mb 53f
6:54pm 10 14 mph 1004.5mb 53f
6:48pm 10 16 mph 1004.5mb 54f
6:42pm 9 13 mph 1004.4mb 55f
6:36pm 13 17 mph 1004.2mb 56f
6:30pm 10 13 mph 1004.3mb 56f
6:24pm 13 15 mph 1004.3mb 56f
6:18pm 11 15 mph 1004.2mb 56f
6:12pm 10 14 mph 1004.1mb 56f
6:06pm 10 15 mph 1004.1mb 56f
6:00pm 11 17 mph 1004.1mb 56f
5:54pm 11 16 mph 1004.1mb 56f
5:48pm 13 15 mph 1004mb 56f
5:42pm 11 14 mph 1004mb 57f
5:36pm 13 17 mph 1004mb 57f
5:30pm 10 14 mph 1004mb 57f
5:24pm 13 20 mph 1004mb 57f
5:18pm 13 18 mph 1004mb 57f
5:12pm 14 20 mph 1004mb 57f
5:06pm 11 16 mph 1004mb 57f
5:00pm 15 21 mph 1003.9mb 58f
4:54pm 10 16 mph 1003.9mb 58f
4:48pm 11 15 mph 1003.9mb 57f
4:42pm 10 14 mph 1003.9mb 56f
4:36pm 14 17 mph 1003.9mb 56f
4:30pm 14 18 mph 1003.9mb 56f
4:24pm 15 20 mph 1003.9mb 57f
4:18pm 11 15 mph 1003.9mb 57f
4:12pm 8 11 mph 1004mb 57f
4:06pm 10 15 mph 1004mb 57f
4:00pm 11 17 mph 1004.2mb 56f
3:54pm 9 15 mph 1004.3mb 56f
3:48pm 10 15 mph 1004.4mb 55f
3:42pm 17 24 mph 1004.4mb 55f
3:36pm 11 16 mph 1004.4mb 55f
3:30pm 13 17 mph 1004.4mb 57f
3:24pm 16 21 mph 1004.4mb 56f
3:18pm 18 22 mph 1004.4mb 55f
3:12pm 17 22 mph 1004.5mb 56f
3:06pm 16 23 mph 1004.5mb 55f
3:00pm 18 24 mph 1004.5mb 55f
2:54pm 17 24 mph 1004.5mb 55f
2:48pm 13 16 mph 1004.6mb 55f
2:42pm 11 18 mph 1004.7mb 55f
2:36pm 11 14 mph 1004.8mb 53f
2:30pm 11 16 mph 1004.8mb 54f
2:24pm 15 21 mph 1004.8mb 54f
2:18pm 16 23 mph 1004.9mb 54f
2:12pm 15 18 mph 1005mb 53f
2:06pm 14 18 mph 1005.1mb 54f
2:00pm 17 23 mph 1005.1mb 52f
1:54pm 21 26 mph 1005.1mb 53f
1:48pm 21 26 mph 1005.1mb 52f
1:42pm 9 17 mph 1005.4mb 52f
1:36pm 11 16 mph 1005.5mb 53f
1:30pm 14 18 mph 1005.5mb 53f
1:24pm 15 24 mph 1005.5mb 51f
1:18pm 10 16 mph 1005.7mb 52f
1:12pm 7 13 mph 1005.8mb 51f
1:06pm 9 15 mph 1005.9mb 51f
1:00pm 13 18 mph 1005.9mb 51f
12:54pm 9 10 mph 1005.9mb 50f
12:48pm 9 11 mph 1006mb 50f
12:42pm 11 15 mph 1006.1mb 50f
12:36pm 7 10 mph 1006.2mb 49f
12:30pm 14 18 mph 1006.2mb 49f
12:24pm 11 15 mph 1006.3mb 49f
12:18pm 15 18 mph 1006.4mb 49f
12:12pm 9 11 mph 1006.5mb 48f
12:06pm 9 11 mph 1006.6mb 48f
12:00pm 13 16 mph 1006.7mb 48f
11:54am 10 14 mph 1006.7mb 48f
11:48am 11 14 mph 1006.8mb 47f
11:42am 7 10 mph 1006.8mb 47f
11:36am 13 15 mph 1006.9mb 47f
11:30am 10 16 mph 1006.9mb 46f
11:24am 11 14 mph 1007.1mb 46f
11:18am 8 15 mph 1007.2mb 45f
11:12am 13 15 mph 1007.2mb 45f
11:06am 8 10 mph 1007.2mb 45f
11:00am 8 13 mph 1007.3mb 45f
10:54am 10 14 mph 1007.3mb 44f
10:48am 9 13 mph 1007.4mb 44f
10:42am 7 11 mph 1007.5mb 44f
10:36am 10 15 mph 1007.5mb 43f
10:30am 7 9 mph 1007.6mb 43f
10:24am 14 16 mph 1007.6mb 43f
10:18am 11 16 mph 1007.8mb 42f
10:12am 8 13 mph 1007.9mb 42f
10:06am 10 14 mph 1007.9mb 43f
10:00am 14 20 mph 1008mb 43f
9:54am 8 10 mph 1008mb 43f
9:48am 13 15 mph 1008mb 42f
9:42am 14 18 mph 1008mb 42f
9:36am 13 15 mph 1008mb 42f
9:30am 10 13 mph 1008mb 41f
9:24am 8 14 mph 1008.1mb 41f
9:18am 14 18 mph 1008.2mb 40f
9:12am 13 15 mph 1008.2mb 40f
9:06am 14 16 mph 1008.3mb 40f
9:00am 13 17 mph 1008.4mb 40f
8:54am 14 18 mph 1008.6mb 40f
8:48am 16 22 mph 1008.8mb 40f
8:42am 10 15 mph 1008.8mb 39f
8:36am 13 20 mph 1008.7mb 39f
8:30am 15 18 mph 1008.8mb 39f
8:24am 16 18 mph 1009mb 38f
8:18am 15 22 mph 1009mb 38f
8:12am 16 18 mph 1008.9mb 38f
8:06am 14 17 mph 1009.1mb 38f
8:00am 14 16 mph 1009.1mb 38f
7:54am 17 21 mph 1009.1mb 38f
7:48am 14 16 mph 1009.2mb 38f
7:42am 14 16 mph 1009.3mb 38f
7:36am 17 22 mph 1009.2mb 38f
7:30am 16 20 mph 1009.2mb 38f
7:24am 16 21 mph 1009.1mb 38f
7:18am 16 20 mph 1009.1mb 38f
7:12am 17 21 mph 1009.1mb 38f
7:06am 16 21 mph 1009.2mb 38f
7:00am 17 20 mph 1009.2mb 38f
6:54am 16 21 mph 1009.3mb 38f
6:48am 17 22 mph 1009.2mb 38f
6:42am 16 20 mph 1009.2mb 38f
6:36am 16 21 mph 1009.2mb 38f
6:30am 17 20 mph 1009.1mb 38f
6:24am 18 22 mph 1009.1mb 38f
6:18am 17 21 mph 1009mb 38f
6:12am 18 22 mph 1008.9mb 38f
6:06am 18 22 mph 1008.9mb 38f
6:00am 16 18 mph 1008.9mb 38f
5:54am 17 21 mph 1008.8mb 38f
5:48am 16 20 mph 1008.8mb 38f
5:42am 16 20 mph 1008.7mb 38f
5:36am 16 21 mph 1008.6mb 38f
5:30am 16 18 mph 1008.5mb 38f
5:24am 16 20 mph 1008.5mb 38f
5:18am 15 16 mph 1008.5mb 38f
5:12am 15 20 mph 1008.4mb 38f
5:06am 16 20 mph 1008.4mb 38f
5:00am 15 17 mph 1008.4mb 38f
4:54am 15 17 mph 1008.3mb 38f
4:48am 14 18 mph 1008.2mb 38f
4:42am 14 16 mph 1008.2mb 38f
4:36am 15 18 mph 1008.2mb 38f
4:30am 15 17 mph 1008.2mb 38f
4:24am 15 17 mph 1008.3mb 38f
4:18am 15 18 mph 1008.3mb 38f
4:12am 14 17 mph 1008.4mb 38f
4:06am 14 17 mph 1008.4mb 38f
4:00am 15 20 mph 1008.4mb 38f
3:54am 15 17 mph 1008.4mb 38f
3:48am 17 20 mph 1008.4mb 38f
3:42am 14 17 mph 1008.5mb 39f
3:36am 14 17 mph 1008.5mb 38f
3:30am 14 17 mph 1008.4mb 39f
3:24am 13 16 mph 1008.6mb 39f
3:18am 14 18 mph 1008.5mb 39f
3:12am 15 18 mph 1008.5mb 39f
3:06am 15 20 mph 1008.5mb 39f
3:00am 15 20 mph 1008.5mb 39f
2:54am 14 16 mph 1008.5mb 39f
2:48am 13 15 mph 1008.5mb 39f
2:42am 13 15 mph 1008.5mb 39f
2:36am 14 15 mph 1008.5mb 39f
2:30am 13 14 mph 1008.5mb 40f
2:24am 13 15 mph 1008.5mb 40f
2:18am 14 16 mph 1008.5mb 40f
2:12am 13 15 mph 1008.5mb 40f
2:06am 14 16 mph 1008.4mb 40f
2:00am 13 16 mph 1008.5mb 40f
1:54am 11 14 mph 1008.5mb 40f
1:48am 11 15 mph 1008.5mb 40f
1:42am 13 15 mph 1008.6mb 40f
1:36am 11 14 mph 1008.6mb 40f
1:30am 14 20 mph 1008.6mb 40f
1:24am 11 14 mph 1008.7mb 40f
1:18am 14 17 mph 1008.7mb 40f
1:12am 13 15 mph 1008.8mb 40f
1:06am 13 17 mph 1008.8mb 41f
1:00am 14 15 mph 1008.8mb 41f
12:54am 13 18 mph 1008.9mb 41f
12:48am 14 17 mph 1008.9mb 41f
12:42am 14 20 mph 1008.9mb 41f
12:36am 13 17 mph 1008.9mb 41f
12:30am 11 16 mph 1008.8mb 41f
12:24am 13 18 mph 1008.9mb 41f
12:18am 14 16 mph 1009mb 41f
12:12am 14 17 mph 1009mb 41f
12:06am 14 18 mph 1009mb 41f
12:00am 14 20 mph 1008.9mb 41f
Fri 04/24 11:54pm 14 18 mph 1009mb 41f
11:48pm 11 17 mph 1009mb 41f
11:42pm 13 17 mph 1008.9mb 41f
11:36pm 14 17 mph 1008.8mb 42f
11:30pm 14 16 mph 1008.9mb 41f
11:24pm 16 24 mph 1008.9mb 41f
11:18pm 13 18 mph 1009mb 42f
11:12pm 14 17 mph 1009mb 42f
11:06pm 17 23 mph 1009mb 42f
11:00pm 15 21 mph 1009.1mb 42f
10:54pm 15 21 mph 1009.1mb 42f
10:48pm 17 25 mph 1009.1mb 42f
10:42pm 16 24 mph 1009.1mb 42f
10:36pm 15 21 mph 1009.1mb 42f
10:30pm 15 20 mph 1009.1mb 42f
10:24pm 14 18 mph 1009.1mb 42f
10:18pm 14 20 mph 1009.1mb 42f
10:12pm 13 18 mph 1009.2mb 43f
10:06pm 13 15 mph 1009.1mb 43f
10:00pm 14 20 mph 1009mb 43f
9:54pm 14 18 mph 1008.9mb 43f
9:48pm 14 18 mph 1008.9mb 43f
9:42pm 15 18 mph 1008.8mb 43f
9:36pm 14 20 mph 1008.8mb 43f
9:30pm 14 16 mph 1008.7mb 43f
9:24pm 14 16 mph 1008.8mb 44f
9:18pm 14 18 mph 1008.7mb 44f
9:12pm 14 20 mph 1008.7mb 44f
9:06pm 14 17 mph 1008.7mb 44f
9:00pm 17 22 mph 1008.6mb 44f
8:54pm 18 24 mph 1008.5mb 44f
8:48pm 18 25 mph 1008.4mb 44f
8:42pm 20 24 mph 1008.3mb 44f
8:36pm 18 25 mph 1008.4mb 44f
8:30pm 16 24 mph 1008.3mb 44f
8:24pm 15 18 mph 1008.2mb 44f
8:18pm 15 21 mph 1008.1mb 44f
8:12pm 15 21 mph 1008.1mb 44f
8:06pm 16 22 mph 1007.9mb 45f
8:00pm 22 28 mph 1007.8mb 45f
7:54pm 22 26 mph 1007.8mb 45f
7:48pm 17 23 mph 1007.8mb 45f
7:42pm 20 25 mph 1007.7mb 45f
7:36pm 20 29 mph 1007.7mb 45f
7:30pm 23 29 mph 1007.6mb 46f
7:24pm 18 24 mph 1007.6mb 46f
7:18pm 16 20 mph 1007.5mb 46f
7:12pm 21 29 mph 1007.3mb 46f
7:06pm 22 31 mph 1007.2mb 46f
7:00pm 23 30 mph 1007.1mb 46f
6:54pm 20 31 mph 1007mb 46f
6:48pm 23 26 mph 1006.8mb 46f
6:42pm 24 30 mph 1006.7mb 47f
6:36pm 21 26 mph 1006.7mb 47f
6:30pm 22 25 mph 1006.6mb 47f
6:24pm 25 31 mph 1006.5mb 47f
6:18pm 22 28 mph 1006.4mb 47f
6:12pm 20 24 mph 1006.4mb 48f
6:06pm 17 24 mph 1006.4mb 48f
6:00pm 20 24 mph 1006.4mb 48f
5:54pm 21 26 mph 1006.4mb 48f
5:48pm 21 25 mph 1006.3mb 47f
5:42pm 21 26 mph 1006.3mb 48f
5:36pm 18 23 mph 1006.3mb 47f
5:30pm 13 20 mph 1006.3mb 48f
5:24pm 16 21 mph 1006.3mb 48f
5:18pm 18 23 mph 1006.2mb 49f
5:12pm 20 25 mph 1006.1mb 49f
5:06pm 18 24 mph 1006.1mb 48f
5:00pm 18 22 mph 1006.1mb 48f
4:54pm 16 24 mph 1006.1mb 49f
4:48pm 18 22 mph 1005.9mb 50f
4:42pm 17 22 mph 1005.9mb 49f
4:36pm 21 24 mph 1005.8mb 49f
4:30pm 16 21 mph 1005.8mb 49f
4:24pm 16 20 mph 1005.8mb 49f
4:18pm 17 23 mph 1005.7mb 49f
4:12pm 15 21 mph 1005.8mb 49f
4:06pm 14 20 mph 1005.7mb 49f
4:00pm 15 18 mph 1005.7mb 48f
3:54pm 14 17 mph 1005.7mb 49f
3:48pm 17 21 mph 1005.6mb 48f
3:42pm 16 22 mph 1005.7mb 49f
3:36pm 17 22 mph 1005.5mb 49f
3:30pm 16 23 mph 1005.4mb 49f
3:24pm 16 21 mph 1005.4mb 49f
3:18pm 18 23 mph 1005.3mb 48f
3:12pm 17 21 mph 1005.3mb 47f
3:06pm 20 25 mph 1005.3mb 48f
3:00pm 20 28 mph 1005.3mb 48f
2:54pm 16 21 mph 1005.4mb 47f
2:48pm 16 20 mph 1005.4mb 47f
2:42pm 21 24 mph 1005.4mb 47f
2:36pm 17 22 mph 1005.5mb 47f
2:30pm 21 24 mph 1005.5mb 47f
2:24pm 17 21 mph 1005.5mb 47f
2:18pm 16 22 mph 1005.7mb 47f
2:12pm 21 23 mph 1005.7mb 47f
2:06pm 20 25 mph 1005.7mb 47f
2:00pm 15 21 mph 1005.9mb 47f
1:54pm 14 20 mph 1005.9mb 46f
1:48pm 17 25 mph 1005.9mb 47f
1:42pm 15 20 mph 1006mb 47f
1:36pm 16 20 mph 1006mb 46f
1:30pm 20 24 mph 1005.9mb 46f
1:24pm 16 22 mph 1005.9mb 46f
1:18pm 18 22 mph 1006mb 46f
1:12pm 16 24 mph 1006mb 46f
1:06pm 18 22 mph 1006mb 46f
1:00pm 21 24 mph 1006mb 46f
12:54pm 15 18 mph 1006.1mb 46f
12:48pm 16 23 mph 1006.1mb 46f
12:42pm 21 29 mph 1006mb 46f
12:36pm 20 24 mph 1006mb 45f
12:30pm 18 24 mph 1006.1mb 45f
12:24pm 15 22 mph 1006.1mb 45f
12:18pm 11 21 mph 1006.3mb 45f
12:12pm 15 22 mph 1006.3mb 45f
12:06pm 20 32 mph 1006.2mb 45f
12:00pm 22 26 mph 1006.3mb 45f
11:54am 11 17 mph 1006.5mb 45f
11:48am 21 25 mph 1006.3mb 45f
11:42am 17 23 mph 1006.4mb 45f
11:36am 14 23 mph 1006.5mb 44f
11:30am 15 21 mph 1006.5mb 45f
11:24am 17 22 mph 1006.6mb 45f
11:18am 17 23 mph 1006.5mb 44f
11:12am 17 23 mph 1006.5mb 45f
11:06am 16 22 mph 1006.7mb 44f
11:00am 16 22 mph 1006.7mb 44f
10:54am 16 23 mph 1006.7mb 44f
10:48am 14 23 mph 1006.8mb 44f
10:42am 13 15 mph 1006.9mb 43f
10:36am 15 23 mph 1006.9mb 43f
10:30am 18 24 mph 1006.9mb 43f
10:24am 14 17 mph 1006.9mb 43f
10:18am 16 22 mph 1007mb 43f
10:12am 15 21 mph 1007mb 43f
10:06am 21 24 mph 1007mb 42f
10:00am 18 23 mph 1007mb 42f
9:54am 17 22 mph 1007.1mb 42f
9:48am 15 23 mph 1007.2mb 41f
9:42am 20 29 mph 1007.2mb 41f
9:36am 20 24 mph 1007.2mb 41f
9:30am 22 30 mph 1007.2mb 41f
9:24am 16 21 mph 1007.2mb 41f
9:18am 20 26 mph 1007.1mb 41f
9:12am 22 26 mph 1007.1mb 41f
9:06am 18 25 mph 1007.1mb 41f
9:00am 21 28 mph 1007mb 41f
8:54am 18 25 mph 1007.1mb 40f
8:48am 15 20 mph 1007.2mb 41f
8:42am 17 23 mph 1007.1mb 40f
8:36am 18 22 mph 1007.2mb 40f
8:30am 18 24 mph 1007.1mb 40f
8:24am 17 24 mph 1007.2mb 40f
8:18am 21 28 mph 1007.1mb 40f
8:12am 17 22 mph 1007.1mb 40f
8:06am 17 23 mph 1007.1mb 40f
8:00am 16 18 mph 1007.1mb 40f
7:54am 16 22 mph 1007.1mb 40f
7:48am 20 25 mph 1007.1mb 40f
7:42am 20 23 mph 1007.1mb 40f
7:36am 18 25 mph 1007mb 40f
7:30am 20 23 mph 1006.9mb 40f
7:24am 20 24 mph 1007mb 40f
7:18am 16 21 mph 1007mb 40f
7:12am 18 26 mph 1006.9mb 40f
7:06am 17 23 mph 1007mb 40f
7:00am 17 22 mph 1006.9mb 39f
6:54am 15 21 mph 1006.9mb 39f
6:48am 14 17 mph 1006.9mb 39f
6:42am 15 21 mph 1006.9mb 39f
6:36am 14 17 mph 1006.8mb 39f
6:30am 11 15 mph 1006.9mb 39f
6:24am 14 17 mph 1006.8mb 39f
6:18am 13 17 mph 1006.8mb 39f
6:12am 13 20 mph 1006.7mb 39f
6:06am 16 21 mph 1006.7mb 39f
6:00am 13 18 mph 1006.7mb 39f
5:54am 16 21 mph 1006.6mb 39f
5:48am 14 17 mph - 39f
5:42am 14 20 mph - 39f
5:36am 13 16 mph - 39f
5:30am 14 21 mph - -
5:24am 11 16 mph - -
5:18am 13 16 mph - 39f
5:12am 13 16 mph - 39f
5:06am 13 15 mph - 39f
5:00am 14 17 mph 1006.3mb 39f
4:54am 13 18 mph 1006.3mb 39f
4:48am 13 17 mph 1006.3mb 39f
4:42am 11 16 mph 1006.3mb 39f
4:36am 13 15 mph 1006.3mb 39f
4:30am 14 18 mph 1006.3mb 39f
4:24am 14 17 mph 1006.2mb 39f
4:18am 15 17 mph 1006.2mb 39f
4:12am 16 21 mph 1006.1mb 39f
4:06am 14 18 mph 1006.2mb 39f
4:00am 17 23 mph 1006.2mb 39f
3:54am 13 17 mph 1006.3mb 39f
3:48am 14 24 mph 1006.3mb 39f
3:42am 16 22 mph 1006.2mb 39f
3:36am 16 22 mph 1006.2mb 39f
3:30am 15 20 mph 1006.1mb 39f
3:24am 17 22 mph 1006mb 39f
3:18am 14 17 mph 1006.1mb 39f
3:12am 14 18 mph 1006mb 39f
3:06am 14 18 mph 1006mb 39f
3:00am 15 18 mph 1006mb 39f
2:54am 15 18 mph 1005.9mb 39f
2:48am 14 18 mph 1005.9mb 39f
2:42am 14 18 mph 1005.9mb 39f
2:36am 13 16 mph 1006mb 39f
2:30am 15 22 mph 1006mb 40f
2:24am 16 23 mph 1006mb 39f
2:18am 18 24 mph 1006mb 40f
2:12am 17 22 mph 1005.9mb 40f
2:06am 17 22 mph 1005.9mb 40f
2:00am 16 20 mph 1005.9mb 40f
1:54am 14 17 mph 1006mb 40f
1:48am 15 16 mph 1005.9mb 40f
1:42am 13 17 mph 1005.9mb 40f
1:36am 14 18 mph 1006mb 40f
1:30am 15 17 mph 1006mb 40f
1:24am 14 17 mph 1006.1mb 40f
1:18am 14 17 mph 1006.1mb 40f
1:12am 15 17 mph 1006.1mb 40f
1:06am 16 20 mph 1006.1mb 40f
1:00am 15 20 mph 1006.2mb 40f
12:54am 14 18 mph 1006.2mb 40f
12:48am 15 18 mph 1006.2mb 40f
12:42am 17 21 mph 1006.2mb 40f
12:36am 17 22 mph 1006.2mb 40f
12:30am 15 20 mph 1006.2mb 40f
12:24am 17 21 mph 1006.2mb 40f
12:18am 16 20 mph 1006.3mb 40f
12:12am 16 21 mph 1006.2mb 40f
12:06am 20 25 mph 1006.1mb 40f
12:00am 18 26 mph 1006.1mb 40f
Thu 04/23 11:54pm 16 18 mph 1006.1mb 40f
11:48pm 16 20 mph 1006.1mb 40f
11:42pm 18 22 mph 1006.1mb 41f
11:36pm 16 21 mph 1006.1mb 41f
11:30pm 17 20 mph 1006.1mb 41f
11:24pm 17 21 mph 1006.1mb 41f
11:18pm 17 24 mph 1006mb 41f
11:12pm 16 18 mph 1006.1mb 41f
11:06pm 17 22 mph 1006mb 41f
11:00pm 16 21 mph 1006mb 41f
10:54pm 18 28 mph 1006mb 41f
10:48pm 22 28 mph 1005.9mb 41f
10:42pm 18 24 mph 1006mb 42f
10:36pm 16 21 mph 1006mb 42f
10:30pm 17 22 mph 1006mb 42f
10:24pm 15 18 mph 1005.9mb 42f
10:18pm 18 26 mph 1005.8mb 42f
10:12pm 15 20 mph 1005.8mb 43f
10:06pm 16 22 mph 1005.8mb 43f
10:00pm 16 22 mph 1005.8mb 43f
9:54pm 20 23 mph 1005.8mb 43f
9:48pm 20 25 mph 1005.8mb 43f
9:42pm 21 30 mph 1005.7mb 43f
9:36pm 22 32 mph 1005.6mb 43f
9:30pm 20 26 mph 1005.6mb 44f
9:24pm 15 18 mph 1005.6mb 44f
9:18pm 17 22 mph 1005.5mb 44f
9:12pm 18 24 mph 1005.5mb 44f
9:06pm 16 20 mph 1005.5mb 44f
9:00pm 13 18 mph 1005.4mb 44f
8:54pm 14 16 mph 1005.4mb 44f
8:48pm 13 16 mph 1005.3mb 44f
8:42pm 15 18 mph 1005.2mb 44f
8:36pm 16 21 mph 1005.1mb 44f
8:30pm 13 17 mph 1005.1mb 44f
8:24pm 14 21 mph 1005mb 44f
8:18pm 17 23 mph 1004.9mb 44f
8:12pm 17 22 mph 1004.9mb 45f
8:06pm 15 22 mph 1004.9mb 45f
8:00pm 15 21 mph 1004.8mb 45f
7:54pm 17 23 mph 1004.6mb 45f
7:48pm 21 25 mph 1004.6mb 45f
7:42pm 22 31 mph 1004.6mb 45f
7:36pm 22 28 mph 1004.5mb 45f
7:30pm 23 29 mph 1004.4mb 45f
7:24pm 26 34 mph 1004.2mb 45f
7:18pm 29 37 mph 1004mb 46f
7:12pm 24 30 mph 1003.8mb 47f
7:06pm 22 25 mph 1003.7mb 47f
7:00pm 22 26 mph 1003.7mb 48f
6:54pm 23 26 mph 1003.6mb 48f
6:48pm 21 25 mph 1003.5mb 48f
6:42pm 16 20 mph 1003.5mb 48f
6:36pm 13 17 mph 1003.5mb 48f
6:30pm 20 24 mph 1003.3mb 48f
6:24pm 21 28 mph 1003.2mb 48f
6:18pm 14 15 mph 1003.3mb 48f
6:12pm 11 13 mph 1003.3mb 48f
6:06pm 8 11 mph 1003.3mb 48f
6:00pm 8 10 mph 1003.2mb 48f
5:54pm 8 9 mph 1003.2mb 48f
5:48pm 8 9 mph 1003.2mb 48f
5:42pm 10 13 mph 1003.2mb 48f
5:36pm 11 14 mph 1003.2mb 48f
5:30pm 11 13 mph 1003.2mb 48f
5:24pm 13 16 mph 1003.1mb 48f
5:18pm 11 14 mph 1003.1mb 48f
5:12pm 13 15 mph 1003.1mb 48f
5:06pm 13 15 mph 1003.1mb 48f
5:00pm 13 17 mph 1003mb 48f
4:54pm 13 16 mph 1003.1mb 48f
4:48pm 17 20 mph 1003.1mb 48f
4:42pm 16 21 mph 1003mb 48f
4:36pm 16 18 mph 1003mb 48f
4:30pm 18 22 mph 1002.9mb 48f
4:24pm 17 21 mph 1003mb 48f
4:18pm 17 23 mph 1002.9mb 48f
4:12pm 17 22 mph 1002.9mb 48f
4:06pm 16 20 mph 1002.9mb 47f
4:00pm 16 21 mph 1002.9mb 47f
3:54pm 15 18 mph 1002.9mb 47f
3:48pm 17 21 mph 1002.9mb 47f
3:42pm 15 17 mph 1002.9mb 47f
3:36pm 15 21 mph 1002.8mb 47f
3:30pm 20 23 mph 1002.8mb 47f
3:24pm 14 17 mph 1002.8mb 47f
3:18pm 21 23 mph 1002.8mb 47f
3:12pm 20 23 mph 1002.8mb 47f
3:06pm 21 28 mph 1002.7mb 47f
3:00pm 20 22 mph 1002.8mb 47f
2:54pm 21 26 mph 1002.8mb 47f
2:48pm 22 25 mph 1002.8mb 47f
2:42pm 22 28 mph 1002.7mb 47f
2:36pm 22 26 mph 1002.7mb 47f
2:30pm 22 28 mph 1002.7mb 47f
2:24pm 23 25 mph 1002.8mb 47f
2:18pm 23 28 mph 1002.8mb 47f
2:12pm 17 21 mph 1002.9mb 47f
2:06pm 17 24 mph 1003mb 47f
2:00pm 18 25 mph 1003mb 47f
1:54pm 20 25 mph 1003.1mb 47f
1:48pm 21 25 mph 1003.1mb 47f
1:42pm 22 26 mph 1003.1mb 47f
1:36pm 24 29 mph 1003mb 46f
1:30pm 25 32 mph 1002.8mb 47f
1:24pm 24 29 mph 1002.8mb 47f
1:18pm 22 26 mph 1002.9mb 46f
1:12pm 22 28 mph 1002.9mb 46f
1:06pm 22 26 mph 1002.8mb 47f
1:00pm 23 29 mph 1002.8mb 47f
12:54pm 23 28 mph 1002.7mb 47f
12:48pm 23 28 mph 1002.7mb 47f